Time;durP1;ratioP1;P1;durP2;ratioP2;P2;SDS_P1;SDS_P2;PMS_P1;PMS_P2;Temp;Humidity;BMP_temperature;BMP_pressure;BME280_temperature;BME280_humidity;BME280_pressure;Samples;Min_cycle;Max_cycle;Signal;HPM_P1;HPM_P2
2021/07/11 00:00:49;;;;;;;18.23;16.52;;;;;;;20.65;57.29;99114.55;2249208;79;21245;-78
2021/07/11 00:03:52;;;;;;;21.45;19.42;;;;;;;20.63;57.39;99112.39;2227282;79;20861;-78
2021/07/11 00:06:53;;;;;;;19.25;17.07;;;;;;;20.61;57.47;99103.61;2249337;79;20896;-78
2021/07/11 00:09:54;;;;;;;18.05;16.12;;;;;;;20.61;57.20;99108.91;2249203;79;21268;-78
2021/07/11 00:12:55;;;;;;;15.98;14.35;;;;;;;20.58;57.19;99103.68;2249308;79;20911;-78
2021/07/11 00:15:56;;;;;;;16.93;15.30;;;;;;;20.56;57.29;99098.41;2249221;79;21307;-77
2021/07/11 00:18:57;;;;;;;25.17;22.55;;;;;;;20.56;56.87;99101.06;2248933;79;20951;-77
2021/07/11 00:21:58;;;;;;;12.37;11.12;;;;;;;20.54;56.95;99096.25;2249274;79;21449;-79
2021/07/11 00:24:59;;;;;;;9.70;8.78;;;;;;;20.01;53.54;99102.77;2249511;79;20907;-79
2021/07/11 00:28:00;;;;;;;9.75;8.78;;;;;;;18.56;54.39;99104.55;2249338;79;20865;-79
2021/07/11 00:31:01;;;;;;;9.53;8.75;;;;;;;17.43;56.19;99101.66;2249510;79;20960;-79
2021/07/11 00:34:02;;;;;;;9.80;8.90;;;;;;;16.70;57.82;99100.19;2248995;79;20956;-79
2021/07/11 00:37:03;;;;;;;9.35;8.45;;;;;;;16.14;59.25;99106.69;2249510;79;20884;-79
2021/07/11 00:40:04;;;;;;;9.53;8.63;;;;;;;15.67;60.47;99102.56;2249359;79;20916;-78
2021/07/11 00:43:05;;;;;;;9.75;8.73;;;;;;;15.24;61.40;99107.91;2249658;77;20948;-79
2021/07/11 00:46:06;;;;;;;10.85;8.98;;;;;;;14.93;62.57;99110.17;2249308;79;21376;-79
2021/07/11 00:49:06;;;;;;;12.47;9.38;;;;;;;14.69;63.40;99104.91;2248983;79;20971;-78
2021/07/11 00:52:07;;;;;;;9.60;8.70;;;;;;;14.50;64.39;99101.41;2249234;79;20912;-78
2021/07/11 00:55:08;;;;;;;10.45;9.45;;;;;;;14.35;65.05;99111.44;2249347;79;20928;-78
2021/07/11 00:58:09;;;;;;;15.30;9.78;;;;;;;14.25;65.62;99111.86;2249257;79;20968;-78
2021/07/11 01:01:10;;;;;;;10.50;9.53;;;;;;;14.20;66.34;99118.86;2249459;79;20936;-78
2021/07/11 01:04:11;;;;;;;23.73;21.23;;;;;;;14.19;66.85;99115.79;2249326;79;20908;-76
2021/07/11 01:07:13;;;;;;;68.05;60.55;;;;;;;14.95;74.88;99111.92;2249157;79;21308;-77
2021/07/11 01:10:14;;;;;;;49.38;44.18;;;;;;;16.59;72.88;99109.47;2249101;79;20877;-77
2021/07/11 01:13:15;;;;;;;40.52;36.15;;;;;;;17.74;70.31;99101.31;2249220;79;20897;-77
2021/07/11 01:16:16;;;;;;;31.33;28.10;;;;;;;18.50;67.56;99102.01;2249067;79;20979;-77
2021/07/11 01:19:17;;;;;;;30.68;27.65;;;;;;;19.40;64.33;99109.28;2248860;79;20952;-78
2021/07/11 01:22:18;;;;;;;26.27;23.70;;;;;;;19.40;64.33;99109.28;2249185;79;21340;-77
2021/07/11 01:25:19;;;;;;;34.08;30.55;;;;;;;19.62;63.07;99107.98;2249352;79;20922;-78
2021/07/11 01:28:20;;;;;;;23.45;21.05;;;;;;;19.75;62.42;99110.38;2249341;79;20912;-78
2021/07/11 01:31:21;;;;;;;19.60;17.65;;;;;;;19.85;61.80;99107.95;2249295;79;20904;-77
2021/07/11 01:34:22;;;;;;;19.67;17.87;;;;;;;19.97;61.26;99107.72;2249122;79;20995;-78
2021/07/11 01:37:23;;;;;;;17.05;15.53;;;;;;;20.04;60.62;99102.25;2249240;79;20873;-78
2021/07/11 01:40:24;;;;;;;16.62;15.20;;;;;;;20.10;60.47;99109.64;2249145;79;21304;-78
2021/07/11 01:43:25;;;;;;;15.08;13.68;;;;;;;20.16;59.79;99114.35;2267257;77;20940;-78
2021/07/11 01:46:26;;;;;;;15.83;14.23;;;;;;;20.19;59.56;99114.73;2291161;78;21406;-78
2021/07/11 01:49:26;;;;;;;22.65;20.20;;;;;;;20.17;59.23;99108.14;2291228;78;20908;-77
2021/07/11 01:52:27;;;;;;;16.60;14.65;;;;;;;20.13;59.02;99103.82;2291140;78;20932;-78
2021/07/11 01:55:28;;;;;;;12.90;11.63;;;;;;;20.12;58.91;99104.73;2291300;78;20956;-79
2021/07/11 01:58:29;;;;;;;13.83;12.53;;;;;;;20.13;58.80;99107.80;2291175;78;20912;-78
2021/07/11 02:01:30;;;;;;;13.30;12.00;;;;;;;20.18;58.54;99109.89;2291331;78;20941;-78
2021/07/11 02:04:31;;;;;;;9.18;8.28;;;;;;;20.19;58.35;99108.98;2291371;78;20976;-78
2021/07/11 02:07:32;;;;;;;9.40;7.55;;;;;;;19.64;54.94;99110.14;2291265;78;20906;-78
2021/07/11 02:10:33;;;;;;;8.00;7.30;;;;;;;18.31;55.47;99112.87;2291307;78;20999;-78
2021/07/11 02:13:34;;;;;;;57.65;51.83;;;;;;;17.50;64.12;99107.74;2291258;78;20912;-79
2021/07/11 02:16:35;;;;;;;45.58;40.67;;;;;;;17.50;64.12;99107.74;2291239;78;21318;-79
2021/07/11 02:19:37;;;;;;;23.27;21.00;;;;;;;18.49;63.26;99107.75;2291614;78;21296;-79
2021/07/11 02:22:38;;;;;;;10.80;9.68;;;;;;;18.97;58.88;99102.56;2291788;78;20913;-79
2021/07/11 02:25:39;;;;;;;8.88;8.08;;;;;;;17.95;57.48;99101.48;2291810;78;20865;-80
2021/07/11 02:28:40;;;;;;;9.45;7.72;;;;;;;17.05;58.56;99099.85;2291797;78;21284;-80
2021/07/11 02:31:41;;;;;;;9.65;8.30;;;;;;;16.37;59.61;99102.14;2291624;78;21324;-79
2021/07/11 02:34:42;;;;;;;11.18;8.65;;;;;;;15.80;60.92;99105.56;2291807;78;20920;-79
2021/07/11 02:37:43;;;;;;;12.20;8.73;;;;;;;15.32;62.04;99108.33;2291788;78;20877;-78
2021/07/11 02:40:44;;;;;;;10.80;8.60;;;;;;;15.01;63.03;99101.83;2291701;78;20941;-79
2021/07/11 02:43:45;;;;;;;9.60;8.65;;;;;;;14.81;63.86;99106.24;2286660;78;21303;-79
2021/07/11 02:46:46;;;;;;;10.58;8.68;;;;;;;14.58;64.53;99103.59;2281918;77;20958;-79
2021/07/11 02:49:47;;;;;;;9.90;8.90;;;;;;;14.46;65.23;99100.97;2281906;78;21345;-80
2021/07/11 02:52:48;;;;;;;9.25;8.30;;;;;;;14.28;65.60;99112.30;2281998;78;20919;-79
2021/07/11 02:55:49;;;;;;;8.68;7.87;;;;;;;14.14;66.39;99110.97;2281902;78;21298;-79
2021/07/11 02:58:50;;;;;;;9.95;8.50;;;;;;;14.06;66.69;99111.39;2282153;78;20910;-78
2021/07/11 03:01:50;;;;;;;8.23;7.42;;;;;;;13.99;67.01;99119.69;2281955;78;21262;-78
2021/07/11 03:04:52;;;;;;;8.85;7.65;;;;;;;13.92;67.41;99114.42;2281863;77;20963;-78
2021/07/11 03:07:52;;;;;;;8.40;7.60;;;;;;;13.87;67.77;99117.03;2281669;78;21349;-78
2021/07/11 03:10:55;;;;;;;11.25;8.03;;;;;;;13.79;67.91;99120.03;2281883;77;20875;-78
2021/07/11 03:13:55;;;;;;;8.73;7.90;;;;;;;13.74;68.12;99124.39;2281814;78;20974;-78
2021/07/11 03:16:57;;;;;;;60.20;53.73;;;;;;;13.74;68.48;99115.20;2280265;77;20938;-78
2021/07/11 03:19:57;;;;;;;116.00;95.60;;;;;;;14.68;75.85;99121.55;2275141;78;20938;-77
2021/07/11 03:22:58;;;;;;;90.90;75.72;;;;;;;16.36;74.38;99114.88;2281576;78;20966;-77
2021/07/11 03:25:59;;;;;;;18.80;16.90;;;;;;;17.70;70.31;99114.12;2281868;78;21373;-79
2021/07/11 03:29:00;;;;;;;11.15;10.00;;;;;;;17.80;63.39;99110.03;2281888;78;20966;-78
2021/07/11 03:32:01;;;;;;;9.73;8.60;;;;;;;16.94;62.71;99105.67;2281783;78;21332;-79
2021/07/11 03:35:02;;;;;;;8.18;7.47;;;;;;;16.33;63.09;99107.00;2281588;77;20998;-79
2021/07/11 03:38:03;;;;;;;8.98;7.70;;;;;;;15.82;63.55;99109.51;2281367;78;20914;-79
2021/07/11 03:41:04;;;;;;;8.88;8.08;;;;;;;15.40;64.46;99103.48;2281801;78;20899;-79
2021/07/11 03:44:05;;;;;;;9.78;7.87;;;;;;;15.18;65.40;99105.73;2265496;77;21315;-79
2021/07/11 03:47:06;;;;;;;10.38;8.08;;;;;;;15.01;65.78;99107.09;2249318;79;21252;-79
2021/07/11 03:50:07;;;;;;;9.65;8.30;;;;;;;14.93;66.34;99108.86;2249448;79;21252;-78
2021/07/11 03:53:08;;;;;;;11.20;8.48;;;;;;;14.96;66.99;99109.72;2249335;79;20904;-78
2021/07/11 03:56:09;;;;;;;12.13;9.50;;;;;;;15.03;67.16;99107.09;2249417;79;20928;-78
2021/07/11 03:59:10;;;;;;;9.10;7.80;;;;;;;15.09;67.60;99114.52;2249287;79;21271;-78
2021/07/11 04:02:10;;;;;;;11.50;9.05;;;;;;;15.19;68.15;99112.31;2249434;79;21287;-79
2021/07/11 04:05:11;;;;;;;12.88;11.45;;;;;;;15.32;68.31;99108.33;2249346;79;20972;-78
2021/07/11 04:08:12;;;;;;;13.28;11.60;;;;;;;15.39;69.01;99106.12;2249278;79;21300;-78
2021/07/11 04:11:13;;;;;;;10.82;9.83;;;;;;;15.44;69.07;99110.48;2249273;79;20972;-78
2021/07/11 04:14:14;;;;;;;10.35;9.35;;;;;;;15.52;69.62;99111.33;2249340;79;21323;-78
2021/07/11 04:17:15;;;;;;;10.82;9.60;;;;;;;15.69;70.03;99099.92;2250337;79;21277;-78
2021/07/11 04:20:16;;;;;;;10.93;9.68;;;;;;;15.69;70.03;99099.92;2252729;79;21280;-77
2021/07/11 04:23:18;;;;;;;10.45;8.93;;;;;;;15.83;70.22;99112.13;2249017;79;20940;-78
2021/07/11 04:26:19;;;;;;;10.13;8.90;;;;;;;15.97;70.43;99113.81;2249399;79;21335;-78
2021/07/11 04:29:20;;;;;;;9.73;8.80;;;;;;;16.04;70.47;99112.90;2249173;79;21276;-77
2021/07/11 04:32:21;;;;;;;9.48;8.58;;;;;;;16.16;70.73;99112.82;2249390;79;20908;-78
2021/07/11 04:35:22;;;;;;;15.08;10.68;;;;;;;16.25;70.75;99116.71;2249402;79;21331;-78
2021/07/11 04:38:23;;;;;;;11.03;9.75;;;;;;;16.31;70.39;99112.72;2249362;79;21284;-78
2021/07/11 04:41:23;;;;;;;11.88;10.88;;;;;;;16.43;70.67;99112.63;2249335;79;21272;-80
2021/07/11 04:44:24;;;;;;;17.40;10.38;;;;;;;16.58;70.37;99114.75;2265923;77;21334;-77
2021/07/11 04:47:25;;;;;;;12.35;11.15;;;;;;;16.62;70.09;99112.08;2281400;78;20985;-77
2021/07/11 04:50:26;;;;;;;11.35;10.30;;;;;;;16.61;70.09;99105.50;2281483;78;21263;-79
2021/07/11 04:53:29;;;;;;;15.25;10.58;;;;;;;16.58;70.19;99105.53;2281630;78;20975;-80
2021/07/11 04:56:29;;;;;;;10.63;9.53;;;;;;;16.55;70.51;99107.30;2281607;78;20950;-79
2021/07/11 04:59:30;;;;;;;11.35;10.18;;;;;;;16.54;70.79;99096.33;2281529;77;21281;-79
2021/07/11 05:02:33;;;;;;;12.10;8.80;;;;;;;16.56;70.98;99101.14;2281688;78;21273;-78
2021/07/11 05:05:35;;;;;;;8.93;8.08;;;;;;;16.71;71.21;99097.53;2281621;77;21326;-80
2021/07/11 05:08:36;;;;;;;10.13;7.87;;;;;;;16.82;70.95;99102.71;2281680;77;20985;-81
2021/07/11 05:11:37;;;;;;;8.18;7.42;;;;;;;16.92;70.95;99098.23;2281648;77;20954;-80
2021/07/11 05:14:37;;;;;;;8.93;7.78;;;;;;;17.02;71.01;99098.12;2281783;78;20921;-79
2021/07/11 05:17:38;;;;;;;9.65;7.22;;;;;;;17.12;70.88;99101.09;2278459;77;20974;-79
2021/07/11 05:20:39;;;;;;;8.45;7.65;;;;;;;17.25;70.67;99100.96;2250683;79;20939;-79
2021/07/11 05:23:40;;;;;;;45.30;33.42;;;;;;;17.44;70.70;99110.00;2274701;78;21230;-77
2021/07/11 05:26:41;;;;;;;9.80;7.65;;;;;;;17.65;70.56;99098.31;2281508;78;20910;-78
2021/07/11 05:29:43;;;;;;;10.03;6.97;;;;;;;17.82;70.38;99097.69;2281376;77;20903;-78
2021/07/11 05:32:43;;;;;;;7.30;6.60;;;;;;;17.93;69.89;99092.70;2281426;77;20951;-79
2021/07/11 05:35:44;;;;;;;6.97;6.33;;;;;;;17.96;70.28;99103.22;2281455;77;20962;-78
2021/07/11 05:38:45;;;;;;;7.00;6.50;;;;;;;18.04;70.01;99104.86;2281615;78;20867;-78
2021/07/11 05:41:49;;;;;;;8.78;6.62;;;;;;;18.16;69.79;99111.73;2281607;77;20975;-79
2021/07/11 05:44:49;;;;;;;7.08;6.47;;;;;;;18.29;69.63;99100.58;2262410;78;20975;-80
2021/07/11 05:47:50;;;;;;;7.78;6.33;;;;;;;18.35;69.08;99102.67;2249277;79;20984;-79
2021/07/11 05:50:51;;;;;;;6.10;5.53;;;;;;;18.44;68.67;99094.60;2249481;79;21262;-79
2021/07/11 05:53:52;;;;;;;6.30;5.65;;;;;;;18.49;68.52;99102.91;2249220;79;20953;-79
2021/07/11 05:56:53;;;;;;;6.08;5.47;;;;;;;18.61;68.98;99093.45;2249350;79;21296;-80
2021/07/11 05:59:54;;;;;;;8.70;5.35;;;;;;;18.70;68.21;99096.85;2249281;79;21297;-81
2021/07/11 06:02:55;;;;;;;11.48;6.95;;;;;;;18.77;68.16;99095.84;2249433;79;20924;-80
2021/07/11 06:05:56;;;;;;;6.95;6.25;;;;;;;19.05;68.30;99100.65;2249479;79;20932;-79
2021/07/11 06:08:57;;;;;;;10.68;7.60;;;;;;;19.05;68.30;99100.65;2249256;79;20897;-79
2021/07/11 06:11:58;;;;;;;7.72;5.30;;;;;;;19.20;67.76;99103.05;2249069;79;20952;-79
2021/07/11 06:14:59;;;;;;;4.87;4.47;;;;;;;19.33;67.44;99108.97;2249248;79;20971;-79
2021/07/11 06:18:00;;;;;;;5.92;4.92;;;;;;;19.48;67.10;99103.38;2249225;79;21035;-79
2021/07/11 06:21:00;;;;;;;7.22;4.60;;;;;;;19.63;66.91;99095.61;2249279;79;20896;-81
2021/07/11 06:24:01;;;;;;;5.10;4.70;;;;;;;19.77;66.87;99101.49;2249294;79;21332;-81
2021/07/11 06:27:02;;;;;;;5.22;4.50;;;;;;;19.90;66.16;99096.80;2249487;79;20900;-80
2021/07/11 06:30:03;;;;;;;4.85;4.45;;;;;;;19.98;65.73;99094.44;2249261;79;21325;-79
2021/07/11 06:33:04;;;;;;;3.98;3.67;;;;;;;20.02;65.28;99100.09;2249347;79;21257;-80
2021/07/11 06:36:05;;;;;;;5.53;4.25;;;;;;;20.07;64.71;99098.66;2249242;79;21299;-79
2021/07/11 06:39:06;;;;;;;4.33;3.92;;;;;;;20.18;64.78;99097.96;2249414;79;21288;-79
2021/07/11 06:42:07;;;;;;;4.50;3.87;;;;;;;20.18;64.34;99093.98;2249218;79;20971;-80
2021/07/11 06:45:08;;;;;;;4.60;4.15;;;;;;;20.14;64.31;99098.06;2268570;77;20950;-79
2021/07/11 06:48:09;;;;;;;9.98;3.98;;;;;;;20.15;64.52;99103.33;2281538;77;20966;-79
2021/07/11 06:51:10;;;;;;;3.87;3.58;;;;;;;20.16;64.56;99105.08;2281559;78;20946;-79
2021/07/11 06:54:11;;;;;;;6.10;4.15;;;;;;;20.17;64.61;99097.55;2281682;78;21002;-79
2021/07/11 06:57:12;;;;;;;4.45;4.05;;;;;;;20.23;64.45;99096.08;2281641;77;20898;-80
2021/07/11 07:00:13;;;;;;;4.17;3.87;;;;;;;20.29;64.57;99102.56;2281613;78;20986;-79
2021/07/11 07:03:14;;;;;;;4.15;3.75;;;;;;;20.43;64.41;99100.08;2281458;78;20905;-81
2021/07/11 07:06:15;;;;;;;5.40;3.20;;;;;;;20.62;64.12;99102.69;2281662;77;20962;-79
2021/07/11 07:09:16;;;;;;;4.75;3.35;;;;;;;20.71;63.57;99101.14;2281943;78;20890;-78
2021/07/11 07:12:17;;;;;;;3.85;3.27;;;;;;;20.86;63.15;99101.24;2281741;78;20933;-79
2021/07/11 07:15:17;;;;;;;3.47;3.17;;;;;;;20.97;63.19;99096.53;2281634;77;20953;-79
2021/07/11 07:18:18;;;;;;;3.95;3.55;;;;;;;21.10;62.68;99103.71;2281725;77;20950;-79
2021/07/11 07:21:19;;;;;;;3.65;2.83;;;;;;;21.20;62.37;99100.77;2281717;78;20906;-79
2021/07/11 07:24:20;;;;;;;7.42;6.70;;;;;;;21.24;62.11;99102.91;2281635;77;20962;-80
2021/07/11 07:27:21;;;;;;;4.28;3.62;;;;;;;21.24;62.42;99100.27;2281698;77;20894;-79
2021/07/11 07:30:22;;;;;;;4.53;3.58;;;;;;;21.72;62.11;99101.16;2281605;78;20940;-79
2021/07/11 07:33:24;;;;;;;4.12;2.92;;;;;;;21.81;61.09;99107.06;2281735;77;20942;-80
2021/07/11 07:36:25;;;;;;;4.05;3.20;;;;;;;21.91;61.10;99105.02;2281687;77;20982;-80
2021/07/11 07:39:26;;;;;;;5.28;3.27;;;;;;;22.04;60.21;99105.55;2281703;78;20902;-79
2021/07/11 07:42:27;;;;;;;7.37;3.05;;;;;;;22.04;59.90;99093.13;2281676;77;20930;-79
2021/07/11 07:45:28;;;;;;;4.10;3.40;;;;;;;22.04;60.12;99096.24;2287582;77;20984;-79
2021/07/11 07:48:29;;;;;;;4.10;3.25;;;;;;;22.07;60.34;99094.36;2291507;78;21391;-80
2021/07/11 07:51:30;;;;;;;3.17;2.87;;;;;;;22.28;59.80;99090.62;2291488;78;21106;-80
2021/07/11 07:54:31;;;;;;;3.33;3.05;;;;;;;22.41;59.82;99092.84;2291619;78;20928;-80
2021/07/11 07:57:32;;;;;;;3.55;3.25;;;;;;;22.53;59.32;99093.77;2291412;78;20928;-80
2021/07/11 08:00:32;;;;;;;3.45;3.15;;;;;;;22.60;59.14;99083.83;2291626;78;20955;-79
2021/07/11 08:03:33;;;;;;;3.37;3.08;;;;;;;22.75;59.07;99096.63;2291244;78;20885;-79
2021/07/11 08:06:34;;;;;;;5.62;2.90;;;;;;;23.03;58.55;99098.38;2291572;78;20907;-81
2021/07/11 08:09:35;;;;;;;4.95;3.30;;;;;;;23.28;57.86;99103.26;2291596;78;20889;-82
2021/07/11 08:12:36;;;;;;;4.83;3.05;;;;;;;23.41;57.26;99099.73;2291158;78;20972;-80
2021/07/11 08:15:37;;;;;;;4.37;3.50;;;;;;;23.60;57.16;99091.96;2291346;78;21003;-79
2021/07/11 08:18:38;;;;;;;6.75;3.55;;;;;;;23.71;56.68;99093.77;2291134;78;21411;-80
2021/07/11 08:21:39;;;;;;;4.62;3.62;;;;;;;23.85;56.58;99091.91;2291531;78;21319;-79
2021/07/11 08:24:40;;;;;;;3.92;3.62;;;;;;;24.03;56.32;99096.08;2291438;78;20999;-79
2021/07/11 08:27:41;;;;;;;5.37;3.37;;;;;;;24.01;55.55;99088.59;2291522;78;21269;-82
2021/07/11 08:30:42;;;;;;;3.42;3.12;;;;;;;24.22;56.08;99087.34;2291565;78;21312;-82
2021/07/11 08:33:43;;;;;;;7.30;3.17;;;;;;;24.56;55.58;99085.59;2291433;78;20931;-80
2021/07/11 08:36:44;;;;;;;3.12;2.95;;;;;;;24.96;54.39;99088.80;2291440;78;20936;-78
2021/07/11 08:39:44;;;;;;;3.30;3.00;;;;;;;25.29;53.70;99090.53;2291439;78;20924;-79
2021/07/11 08:42:45;;;;;;;4.58;2.67;;;;;;;25.56;52.50;99085.30;2291236;78;20916;-79
2021/07/11 08:45:46;;;;;;;2.90;2.80;;;;;;;25.69;51.85;99081.63;2290438;78;20983;-79
2021/07/11 08:48:48;;;;;;;3.52;3.27;;;;;;;25.95;51.78;99085.77;2291302;78;21027;-80
2021/07/11 08:51:49;;;;;;;7.45;4.62;;;;;;;26.08;50.54;99084.75;2290956;78;21004;-81
2021/07/11 08:54:50;;;;;;;3.92;3.20;;;;;;;26.47;50.48;99087.34;2291526;78;20932;-81
2021/07/11 08:57:51;;;;;;;3.90;3.42;;;;;;;26.19;49.38;99087.78;2291401;78;20913;-81
2021/07/11 09:00:52;;;;;;;5.25;3.70;;;;;;;25.83;49.69;99089.02;2291423;78;21336;-80
2021/07/11 09:03:53;;;;;;;5.80;3.22;;;;;;;25.49;50.66;99086.98;2291284;78;20959;-80
2021/07/11 09:06:55;;;;;;;3.50;3.30;;;;;;;25.48;50.23;99084.77;2291296;78;20929;-80
2021/07/11 09:09:56;;;;;;;3.17;2.90;;;;;;;25.42;50.11;99087.72;2291387;78;20905;-81
2021/07/11 09:12:57;;;;;;;3.90;2.98;;;;;;;25.73;50.90;99089.91;2291346;78;21350;-81
2021/07/11 09:15:57;;;;;;;3.92;3.62;;;;;;;25.62;49.85;99082.81;2290807;78;20909;-81
2021/07/11 09:18:59;;;;;;;5.67;3.25;;;;;;;25.89;50.50;99080.70;2290985;78;20967;-80
2021/07/11 09:21:59;;;;;;;4.47;3.50;;;;;;;26.25;49.13;99078.99;2291160;78;20912;-81
2021/07/11 09:25:00;;;;;;;4.17;3.40;;;;;;;26.63;48.48;99075.80;2291266;78;20960;-80
2021/07/11 09:28:01;;;;;;;5.20;3.10;;;;;;;27.12;47.38;99076.05;2291174;78;20905;-81
2021/07/11 09:31:02;;;;;;;478.48;280.70;;;;;;;27.25;46.56;99082.98;2291291;78;20908;-81
2021/07/11 09:34:03;;;;;;;5.28;4.17;;;;;;;27.18;47.66;99077.08;2291263;78;21028;-80
2021/07/11 09:37:04;;;;;;;11.48;5.33;;;;;;;27.53;46.86;99073.88;2291668;78;21289;-80
2021/07/11 09:40:05;;;;;;;5.33;3.33;;;;;;;27.42;46.14;99068.69;2291310;78;21269;-81
2021/07/11 09:43:06;;;;;;;5.12;2.80;;;;;;;27.53;46.86;99074.34;2291286;78;21276;-80
2021/07/11 09:46:07;;;;;;;3.15;2.92;;;;;;;27.26;46.02;99077.54;2284414;78;20970;-82
2021/07/11 09:49:08;;;;;;;3.35;3.05;;;;;;;26.50;47.42;99067.98;2281349;77;20966;-81
2021/07/11 09:52:09;;;;;;;4.10;3.80;;;;;;;26.54;48.38;99066.03;2281424;77;20918;-80
2021/07/11 09:55:10;;;;;;;3.10;2.90;;;;;;;26.65;48.77;99064.55;2281405;77;20922;-80
2021/07/11 09:58:11;;;;;;;4.10;2.90;;;;;;;27.11;47.38;99070.30;2281423;78;20937;-81
2021/07/11 10:01:12;;;;;;;4.00;3.70;;;;;;;26.88;47.14;99070.11;2281393;78;20985;-80
2021/07/11 10:04:13;;;;;;;2.62;2.42;;;;;;;26.89;47.70;99075.00;2281466;78;21254;-81
2021/07/11 10:07:14;;;;;;;2.92;2.62;;;;;;;27.33;46.99;99066.50;2281435;78;20906;-81
2021/07/11 10:10:14;;;;;;;2.62;2.30;;;;;;;27.46;46.18;99068.45;2281431;78;21290;-81
2021/07/11 10:13:15;;;;;;;3.45;2.45;;;;;;;27.73;45.90;99063.44;2281414;78;21321;-78
2021/07/11 10:16:16;;;;;;;4.55;2.80;;;;;;;27.59;46.22;99065.50;2281423;78;21357;-82
2021/07/11 10:19:17;;;;;;;3.25;3.05;;;;;;;27.71;45.68;99062.66;2281339;77;20966;-81
2021/07/11 10:22:18;;;;;;;8.05;2.80;;;;;;;27.86;45.50;99073.92;2281380;78;21290;-80
2021/07/11 10:25:19;;;;;;;2.75;2.50;;;;;;;27.86;45.07;99073.92;2281570;77;21001;-79
2021/07/11 10:28:20;;;;;;;2.42;2.25;;;;;;;27.88;45.44;99066.66;2281430;78;20919;-81
2021/07/11 10:31:21;;;;;;;2.47;2.35;;;;;;;27.95;45.36;99071.69;2281613;77;20913;-80
2021/07/11 10:34:22;;;;;;;2.35;2.22;;;;;;;28.31;44.69;99070.98;2281416;77;20926;-81
2021/07/11 10:37:25;;;;;;;6.55;3.17;;;;;;;27.97;44.42;99073.33;2281573;77;20902;-81
2021/07/11 10:40:25;;;;;;;2.98;2.75;;;;;;;27.63;45.20;99072.07;2281652;77;21322;-79
2021/07/11 10:43:26;;;;;;;527.40;341.27;;;;;;;27.53;45.88;99068.98;2281768;78;20879;-80
2021/07/11 10:46:27;;;;;;;5.25;4.67;;;;;;;27.76;46.23;99065.98;2257911;77;20975;-81
2021/07/11 10:49:30;;;;;;;26.35;21.00;;;;;;;28.03;45.78;99062.25;2253099;79;21375;-80
2021/07/11 10:52:31;;;;;;;5.85;5.30;;;;;;;28.29;45.01;99054.58;2254468;79;21324;-80
2021/07/11 10:55:33;;;;;;;3.77;3.45;;;;;;;28.56;44.64;99058.36;2249433;79;20913;-80
2021/07/11 10:58:34;;;;;;;3.35;3.02;;;;;;;28.31;43.97;99064.76;2249546;79;21334;-80
2021/07/11 11:01:35;;;;;;;5.10;4.00;;;;;;;27.75;44.75;99054.87;2249390;79;20912;-80
2021/07/11 11:04:36;;;;;;;4.03;3.67;;;;;;;27.70;46.04;99051.54;2249478;79;20900;-79
2021/07/11 11:07:37;;;;;;;5.65;3.45;;;;;;;27.48;46.15;99054.96;2249448;79;21005;-80
2021/07/11 11:10:37;;;;;;;3.90;3.60;;;;;;;27.37;46.80;99058.69;2249382;79;20909;-79
2021/07/11 11:13:38;;;;;;;3.80;3.50;;;;;;;27.29;47.09;99054.60;2249082;79;20911;-81
2021/07/11 11:16:40;;;;;;;3.62;3.42;;;;;;;27.48;47.02;99048.26;2248819;79;20940;-80
2021/07/11 11:19:42;;;;;;;4.37;3.60;;;;;;;27.38;47.45;99049.70;2248405;79;23250;-80
2021/07/11 11:22:43;;;;;;;3.47;3.27;;;;;;;27.55;47.14;99045.64;2249457;79;20861;-81
2021/07/11 11:25:44;;;;;;;3.92;3.33;;;;;;;27.45;47.20;99043.92;2249256;79;20977;-79
2021/07/11 11:28:45;;;;;;;4.92;3.65;;;;;;;27.72;47.39;99039.39;2249315;79;21289;-80
2021/07/11 11:31:46;;;;;;;5.53;3.87;;;;;;;28.09;46.31;99035.55;2249342;79;21320;-81
2021/07/11 11:34:48;;;;;;;8.95;3.83;;;;;;;28.33;45.22;99033.32;2249818;79;21308;-82
2021/07/11 11:37:49;;;;;;;3.92;3.62;;;;;;;28.48;45.94;99027.06;2249386;79;20961;-81
2021/07/11 11:40:50;;;;;;;4.62;4.10;;;;;;;28.72;44.62;99021.62;2249747;79;20873;-80
2021/07/11 11:43:51;;;;;;;5.30;4.80;;;;;;;28.57;44.41;99020.29;2248953;79;20881;-81
2021/07/11 11:46:51;;;;;;;3.85;3.60;;;;;;;28.70;44.27;99018.64;2274056;77;20985;-79
2021/07/11 11:49:52;;;;;;;3.67;3.37;;;;;;;28.98;44.61;99016.06;2281595;77;21360;-81
2021/07/11 11:52:53;;;;;;;8.13;3.65;;;;;;;29.22;44.16;99018.21;2281496;78;21338;-80
2021/07/11 11:55:54;;;;;;;3.58;3.27;;;;;;;29.10;43.68;99015.80;2281634;77;21297;-80
2021/07/11 11:58:55;;;;;;;4.90;3.30;;;;;;;28.90;43.65;99019.69;2281551;78;21243;-80
2021/07/11 12:04:58;;;;;;;7.40;3.40;;;;;;;29.55;43.05;99018.86;2260291;78;20978;-79
2021/07/11 12:07:59;;;;;;;17.32;12.28;;;;;;;29.74;42.78;99034.23;2281668;77;20879;-82
2021/07/11 12:11:00;;;;;;;3.50;3.20;;;;;;;29.98;42.61;99034.96;2281646;78;20906;-81
2021/07/11 12:14:01;;;;;;;3.60;3.30;;;;;;;30.26;41.51;99038.10;2281512;78;21283;-80
2021/07/11 12:17:02;;;;;;;15.25;5.87;;;;;;;29.84;41.88;99043.92;2281526;78;20894;-81
2021/07/11 12:20:03;;;;;;;4.05;3.72;;;;;;;29.61;43.02;99040.00;2280664;77;21463;-81
2021/07/11 12:23:04;;;;;;;3.90;3.58;;;;;;;29.73;42.17;99039.22;2281594;77;20914;-81
2021/07/11 12:26:07;;;;;;;3.95;3.60;;;;;;;29.71;42.39;99039.80;2282079;77;21299;-81
2021/07/11 12:29:08;;;;;;;7.58;4.45;;;;;;;29.65;43.00;99036.16;2282082;77;20966;-81
2021/07/11 12:32:09;;;;;;;4.47;3.90;;;;;;;29.93;42.59;99037.09;2282091;77;20978;-82
2021/07/11 12:35:10;;;;;;;13.15;6.83;;;;;;;29.68;41.88;99034.61;2281624;78;20934;-80
2021/07/11 12:38:11;;;;;;;4.47;4.08;;;;;;;29.57;43.12;99031.73;2281721;77;20971;-81
2021/07/11 12:41:12;;;;;;;4.17;3.77;;;;;;;29.85;43.00;99019.22;2281153;78;20966;-81
2021/07/11 12:44:16;;;;;;;4.67;4.30;;;;;;;29.78;42.76;99022.79;2281226;78;20970;-80
2021/07/11 12:47:16;;;;;;;4.75;4.22;;;;;;;29.51;43.64;99020.02;2289922;77;21035;-80
2021/07/11 12:50:17;;;;;;;4.50;4.15;;;;;;;29.65;43.28;99016.45;2291439;78;20991;-79
2021/07/11 12:53:18;;;;;;;7.10;4.37;;;;;;;29.43;43.43;99011.05;2291324;78;20909;-81
2021/07/11 12:56:19;;;;;;;4.33;4.00;;;;;;;29.18;44.35;99013.02;2291386;78;21300;-80
2021/07/11 12:59:19;;;;;;;4.60;4.20;;;;;;;28.58;44.94;99008.11;2291424;78;21249;-82
2021/07/11 13:02:21;;;;;;;5.15;4.75;;;;;;;28.55;45.68;99000.23;2291463;78;21031;-81
2021/07/11 13:05:21;;;;;;;5.12;4.75;;;;;;;29.14;44.85;98997.18;2291139;78;21315;-80
2021/07/11 13:08:22;;;;;;;15.78;9.88;;;;;;;29.72;43.46;98994.45;2291474;78;21307;-79
2021/07/11 13:11:23;;;;;;;4.58;4.20;;;;;;;30.11;43.30;98999.59;2291597;78;20909;-81
2021/07/11 13:14:24;;;;;;;5.92;4.28;;;;;;;30.08;42.59;99001.14;2291514;78;21330;-79
2021/07/11 13:17:25;;;;;;;5.35;4.10;;;;;;;30.11;42.52;99003.63;2291406;78;21320;-80
2021/07/11 13:20:26;;;;;;;7.40;6.75;;;;;;;29.64;43.38;99002.14;2291471;78;21031;-81
2021/07/11 13:23:27;;;;;;;11.97;6.47;;;;;;;29.84;43.55;99004.91;2291306;78;20963;-80
2021/07/11 13:26:28;;;;;;;185.57;54.08;;;;;;;29.93;43.51;99004.80;2291404;78;20972;-80
2021/07/11 13:29:29;;;;;;;527.02;165.80;;;;;;;29.95;43.62;99002.87;2291375;78;21297;-78
2021/07/11 13:32:30;;;;;;;371.82;106.50;;;;;;;29.96;43.48;99001.91;2291464;78;21324;-81
2021/07/11 13:35:31;;;;;;;8.03;4.22;;;;;;;29.84;43.70;99000.88;2291352;78;21308;-81
2021/07/11 13:38:32;;;;;;;4.65;4.25;;;;;;;29.70;43.69;99003.58;2291545;78;21281;-80
2021/07/11 13:41:33;;;;;;;8.73;5.45;;;;;;;29.51;44.11;99003.02;2291565;78;21323;-83
2021/07/11 13:44:34;;;;;;;5.85;4.70;;;;;;;29.37;44.45;99001.13;2291613;78;21416;-83
2021/07/11 13:47:35;;;;;;;7.67;5.20;;;;;;;29.32;44.55;99008.62;2282941;78;20973;-82
2021/07/11 13:50:36;;;;;;;5.03;4.62;;;;;;;29.48;44.33;99013.01;2281559;77;21318;-81
2021/07/11 13:53:39;;;;;;;197.13;61.70;;;;;;;29.37;44.24;99002.47;2281210;77;20974;-82
2021/07/11 13:56:40;;;;;;;212.30;89.77;;;;;;;29.33;44.63;99005.84;2281549;78;20899;-82
2021/07/11 13:59:41;;;;;;;6.97;4.87;;;;;;;29.53;44.51;99001.96;2281765;78;20964;-82
2021/07/11 14:02:42;;;;;;;5.15;4.75;;;;;;;29.61;43.71;98999.65;2282198;77;20949;-82
2021/07/11 14:05:43;;;;;;;5.30;4.80;;;;;;;29.34;43.65;98994.12;2282240;77;20954;-82
2021/07/11 14:08:44;;;;;;;9.25;5.12;;;;;;;28.95;44.32;98995.23;2281994;77;20933;-80